createdAt,value
2019-05-16T00:01:38.179Z,10.97
2019-05-16T00:04:05.211Z,12.00
2019-05-16T00:06:32.568Z,11.37
2019-05-16T00:08:59.974Z,12.27
2019-05-16T00:11:28.128Z,10.63
2019-05-16T00:13:57.520Z,10.30
2019-05-16T00:16:24.959Z,11.30
2019-05-16T00:18:52.346Z,10.30
2019-05-16T00:21:19.796Z,10.50
2019-05-16T00:23:48.610Z,9.73
2019-05-16T00:26:16.349Z,10.40
2019-05-16T00:28:43.831Z,9.80
2019-05-16T00:31:11.179Z,9.43
2019-05-16T00:33:38.590Z,10.40
2019-05-16T00:36:08.930Z,10.83
2019-05-16T00:38:35.326Z,11.57
2019-05-16T00:41:02.748Z,10.50
2019-05-16T00:43:30.276Z,11.13
2019-05-16T00:45:58.989Z,11.70
2019-05-16T00:48:28.671Z,10.83
2019-05-16T00:50:58.286Z,11.07
2019-05-16T00:53:25.199Z,11.50
2019-05-16T00:55:53.804Z,10.10
2019-05-16T00:58:22.102Z,10.50
2019-05-16T01:00:50.434Z,10.63
2019-05-16T01:03:20.121Z,10.37
2019-05-16T01:05:48.167Z,10.47
2019-05-16T01:08:15.666Z,10.10
2019-05-16T01:10:43.267Z,9.43
2019-05-16T01:13:10.784Z,8.83
2019-05-16T01:15:38.358Z,9.70
2019-05-16T01:18:07.852Z,7.77
2019-05-16T01:20:35.302Z,8.13
2019-05-16T01:23:02.925Z,9.63
2019-05-16T01:25:30.872Z,8.17
2019-05-16T01:27:58.402Z,7.27
2019-05-16T01:30:25.815Z,7.83
2019-05-16T01:32:53.209Z,8.77
2019-05-16T01:35:20.693Z,9.80
2019-05-16T01:37:48.850Z,9.23
2019-05-16T01:40:18.655Z,10.40
2019-05-16T01:42:48.773Z,10.00
2019-05-16T01:45:16.100Z,9.63
2019-05-16T01:47:43.523Z,9.70
2019-05-16T01:50:11.435Z,10.70
2019-05-16T01:52:38.859Z,10.20
2019-05-16T01:55:08.253Z,9.70
2019-05-16T01:57:36.010Z,9.43
2019-05-16T02:00:04.301Z,9.90
2019-05-16T02:02:31.694Z,9.47
2019-05-16T02:04:59.208Z,8.30
2019-05-16T02:07:28.332Z,9.97
2019-05-16T02:09:58.095Z,10.27
2019-05-16T02:12:25.172Z,8.87
2019-05-16T02:14:52.591Z,9.37
2019-05-16T02:17:19.941Z,8.47
2019-05-16T02:19:48.531Z,9.33
2019-05-16T02:22:17.893Z,9.33
2019-05-16T02:24:45.341Z,8.40
2019-05-16T02:27:12.752Z,8.60
2019-05-16T02:29:40.296Z,9.07
2019-05-16T02:32:07.616Z,9.57
2019-05-16T02:34:35.034Z,9.47
2019-05-16T02:37:18.357Z,8.80
2019-05-16T02:39:31.692Z,9.17
2019-05-16T02:42:01.015Z,8.73
2019-05-16T02:44:31.487Z,9.13
2019-05-16T02:47:01.235Z,8.93
2019-05-16T02:49:30.617Z,8.37
2019-05-16T02:51:56.488Z,7.53
2019-05-16T02:54:23.898Z,8.27
2019-05-16T02:56:51.316Z,8.13
2019-05-16T02:59:20.662Z,8.07
2019-05-16T03:01:51.765Z,7.77
2019-05-16T03:04:17.503Z,8.83
2019-05-16T03:06:45.707Z,7.60
2019-05-16T03:09:13.373Z,6.77
2019-05-16T03:11:42.102Z,7.23
2019-05-16T03:14:11.230Z,7.30
2019-05-16T03:16:41.809Z,7.50
2019-05-16T03:19:12.032Z,7.03
2019-05-16T03:21:41.883Z,8.20
2019-05-16T03:24:11.271Z,8.57
2019-05-16T03:26:40.893Z,9.10
2019-05-16T03:29:11.084Z,8.27
2019-05-16T03:31:43.619Z,8.87
2019-05-16T03:34:07.947Z,8.23
2019-05-16T03:36:36.312Z,7.00
2019-05-16T03:39:04.985Z,7.53
2019-05-16T03:41:32.898Z,8.17
2019-05-16T03:44:01.380Z,7.47
2019-05-16T03:46:30.940Z,6.97
2019-05-16T03:49:02.059Z,6.70
2019-05-16T03:51:30.696Z,7.73
2019-05-16T03:53:57.022Z,7.70
2019-05-16T03:56:24.430Z,7.27
2019-05-16T03:58:51.852Z,8.53
2019-05-16T04:01:21.011Z,7.93
2019-05-16T04:03:51.098Z,7.83
2019-05-16T04:06:18.028Z,8.57
2019-05-16T04:08:45.459Z,8.50
2019-05-16T04:11:12.845Z,8.30
2019-05-16T04:13:41.177Z,8.03
2019-05-16T04:16:11.896Z,9.40
2019-05-16T04:18:41.705Z,9.17
2019-05-16T04:21:07.613Z,7.77
2019-05-16T04:23:35.046Z,7.57
2019-05-16T04:26:02.409Z,8.33
2019-05-16T04:28:31.752Z,7.83
2019-05-16T04:31:01.769Z,7.97
2019-05-16T04:33:30.843Z,9.47
2019-05-16T04:36:00.916Z,8.93
2019-05-16T04:38:40.231Z,8.93
2019-05-16T04:40:56.441Z,7.30
2019-05-16T04:43:23.863Z,7.97
2019-05-16T04:45:52.552Z,7.87
2019-05-16T04:48:22.400Z,9.77
2019-05-16T04:50:51.675Z,9.80
2019-05-16T04:53:20.761Z,8.07
2019-05-16T04:55:51.458Z,7.90
2019-05-16T04:58:22.570Z,7.77
2019-05-16T05:00:47.090Z,7.63
2019-05-16T05:03:14.551Z,8.50
2019-05-16T05:05:42.041Z,8.07
2019-05-16T05:08:10.875Z,8.03
2019-05-16T05:10:40.671Z,8.10
2019-05-16T05:13:10.785Z,9.07
2019-05-16T05:15:37.052Z,8.63
2019-05-16T05:18:04.681Z,8.23
2019-05-16T05:20:32.176Z,8.47
2019-05-16T05:23:00.454Z,7.70
2019-05-16T05:25:28.083Z,8.73
2019-05-16T05:27:55.516Z,7.73
2019-05-16T05:30:22.992Z,7.20
2019-05-16T05:32:50.413Z,6.20
2019-05-16T05:35:20.617Z,6.43
2019-05-16T05:37:47.396Z,7.40
2019-05-16T05:40:15.019Z,7.27
2019-05-16T05:42:42.440Z,8.03
2019-05-16T05:45:11.295Z,8.47
2019-05-16T05:47:40.282Z,8.07
2019-05-16T05:50:11.126Z,7.63
2019-05-16T05:52:40.848Z,8.70
2019-05-16T05:55:10.359Z,8.10
2019-05-16T05:57:37.146Z,7.90
2019-05-16T06:00:05.432Z,7.80
2019-05-16T06:02:32.890Z,7.60
2019-05-16T06:05:00.351Z,7.30
2019-05-16T06:07:29.865Z,8.00
2019-05-16T06:09:57.119Z,7.70
2019-05-16T06:12:24.576Z,7.60
2019-05-16T06:14:52.002Z,6.50
2019-05-16T06:17:20.071Z,5.93
2019-05-16T06:19:49.803Z,6.73
2019-05-16T06:22:17.162Z,6.83
2019-05-16T06:24:44.625Z,6.93
2019-05-16T06:27:11.984Z,7.27
2019-05-16T06:29:40.289Z,8.20
2019-05-16T06:32:10.157Z,8.90
2019-05-16T06:34:37.327Z,7.23
2019-05-16T06:37:04.761Z,7.80
2019-05-16T06:39:41.213Z,6.83
2019-05-16T06:42:01.521Z,7.50
2019-05-16T06:44:30.814Z,8.03
2019-05-16T06:47:12.747Z,7.77
2019-05-16T06:49:30.401Z,8.27
2019-05-16T06:51:59.709Z,8.03
2019-05-16T06:54:29.719Z,6.97
2019-05-16T06:56:56.674Z,8.07
2019-05-16T06:59:24.123Z,7.77
2019-05-16T07:01:51.504Z,7.50
2019-05-16T07:04:20.053Z,8.10
2019-05-16T07:06:57.906Z,8.57
2019-05-16T07:09:17.201Z,8.40
2019-05-16T07:11:44.600Z,6.57
2019-05-16T07:14:12.036Z,10.50
2019-05-16T07:16:40.470Z,8.23
2019-05-16T07:19:10.349Z,7.80
2019-05-16T07:21:39.575Z,7.83
2019-05-16T07:24:07.007Z,7.43
2019-05-16T07:26:34.426Z,7.33
2019-05-16T07:29:01.988Z,7.43
2019-05-16T07:31:30.029Z,6.53
2019-05-16T07:33:57.724Z,6.93
2019-05-16T07:36:25.207Z,7.27
2019-05-16T07:38:52.671Z,7.43
2019-05-16T07:41:20.597Z,7.17
2019-05-16T07:43:50.491Z,7.80
2019-05-16T07:46:20.513Z,7.20
2019-05-16T07:48:47.577Z,7.53
2019-05-16T07:51:15.045Z,7.57
2019-05-16T07:53:42.488Z,8.20
2019-05-16T07:56:10.504Z,8.20
2019-05-16T07:58:38.147Z,8.70
2019-05-16T08:01:09.177Z,8.63
2019-05-16T08:03:35.088Z,8.47
2019-05-16T08:06:02.522Z,8.73
2019-05-16T08:08:31.361Z,10.17
2019-05-16T08:11:01.528Z,8.33
2019-05-16T08:13:30.794Z,8.13
2019-05-16T08:16:00.852Z,10.63
2019-05-16T08:18:30.035Z,9.83
2019-05-16T08:20:56.683Z,9.97
2019-05-16T08:23:24.049Z,9.73
2019-05-16T08:25:51.579Z,9.93
2019-05-16T08:28:21.661Z,9.77
2019-05-16T08:30:52.397Z,9.67
2019-05-16T08:33:21.409Z,10.47
2019-05-16T08:35:47.026Z,11.30
2019-05-16T08:38:14.457Z,9.57
2019-05-16T08:41:04.681Z,10.57
2019-05-16T08:43:11.846Z,11.13
2019-05-16T08:45:41.796Z,9.50
2019-05-16T08:48:11.333Z,10.43
2019-05-16T08:50:42.104Z,9.53
2019-05-16T08:53:11.877Z,11.93
2019-05-16T08:55:36.858Z,10.20
2019-05-16T08:58:04.310Z,12.53
2019-05-16T09:03:01.861Z,10.43
2019-05-16T09:05:31.484Z,12.90
2019-05-16T09:10:41.993Z,11.97
2019-05-16T09:10:50.008Z,12.33
2019-05-16T09:13:07.176Z,11.27
2019-05-16T09:15:58.552Z,11.67
2019-05-16T09:18:38.986Z,11.97
2019-05-16T09:18:39.939Z,11.30
2019-05-16T09:21:32.178Z,11.63
2019-05-16T09:24:00.954Z,11.93
2019-05-16T09:26:28.547Z,11.33
2019-05-16T09:28:57.710Z,12.27
2019-05-16T09:31:31.730Z,11.90
2019-05-16T09:34:01.384Z,11.97
2019-05-16T09:36:28.826Z,11.60
2019-05-16T09:38:57.740Z,12.73
2019-05-16T09:41:28.785Z,11.27
2019-05-16T09:43:54.826Z,13.10
2019-05-16T09:46:22.665Z,11.63
2019-05-16T09:48:50.207Z,10.13
2019-05-16T09:51:21.066Z,11.03
2019-05-16T09:53:47.226Z,11.73
2019-05-16T09:56:16.842Z,10.27
2019-05-16T09:58:46.561Z,11.07
2019-05-16T10:01:13.705Z,11.50
2019-05-16T10:03:41.165Z,11.43
2019-05-16T10:06:08.590Z,11.27
2019-05-16T10:08:37.437Z,11.90
2019-05-16T10:11:06.288Z,11.83
2019-05-16T10:13:33.956Z,12.00
2019-05-16T10:16:01.486Z,11.90
2019-05-16T10:18:28.892Z,11.47
2019-05-16T10:20:58.947Z,10.07
2019-05-16T10:23:25.804Z,10.97
2019-05-16T10:25:53.186Z,11.60
2019-05-16T10:28:20.631Z,11.33
2019-05-16T10:30:50.181Z,9.83
2019-05-16T10:33:19.190Z,10.27
2019-05-16T10:35:47.962Z,9.00
2019-05-16T10:38:15.896Z,9.50
2019-05-16T10:40:43.332Z,8.20
2019-05-16T10:43:10.784Z,8.80
2019-05-16T10:45:38.212Z,8.80
2019-05-16T10:48:06.325Z,8.87
2019-05-16T10:50:33.829Z,8.47
2019-05-16T10:53:22.368Z,8.93
2019-05-16T10:55:31.566Z,7.87
2019-05-16T10:57:59.041Z,8.03
2019-05-16T11:00:48.976Z,8.17
2019-05-16T11:02:58.710Z,9.13
2019-05-16T11:05:33.087Z,8.90
2019-05-16T11:07:57.038Z,10.20
2019-05-16T11:10:26.895Z,9.03
2019-05-16T11:12:55.673Z,8.93
2019-05-16T11:15:22.921Z,10.13
2019-05-16T11:17:50.425Z,10.63
2019-05-16T11:20:20.370Z,11.67
2019-05-16T11:22:48.309Z,9.73
2019-05-16T11:25:24.879Z,10.40
2019-05-16T11:27:46.849Z,10.10
2019-05-16T11:30:17.807Z,9.17
2019-05-16T11:32:46.808Z,9.17
2019-05-16T11:35:17.033Z,8.67
2019-05-16T11:37:46.936Z,7.70
2019-05-16T11:40:13.464Z,8.23
2019-05-16T11:42:40.901Z,10.37
2019-05-16T11:45:10.395Z,9.80
2019-05-16T11:47:38.913Z,11.23
2019-05-16T11:50:07.470Z,11.70
2019-05-16T11:52:35.093Z,14.10
2019-05-16T11:55:02.673Z,13.10
2019-05-16T11:57:30.264Z,14.90
2019-05-16T11:59:57.713Z,13.87
2019-05-16T12:02:27.897Z,8.93
2019-05-16T12:04:54.462Z,9.17
2019-05-16T12:07:21.837Z,5.43
2019-05-16T12:09:55.169Z,5.63
2019-05-16T12:12:20.786Z,5.30
2019-05-16T12:14:47.934Z,4.30
2019-05-16T12:17:16.632Z,4.10
2019-05-16T12:19:44.885Z,4.40
2019-05-16T12:22:13.486Z,3.13
2019-05-16T12:24:41.639Z,2.97
2019-05-16T12:27:09.141Z,2.63
2019-05-16T12:29:37.427Z,2.20
2019-05-16T12:32:07.647Z,1.70
2019-05-16T12:34:34.327Z,1.80
2019-05-16T12:37:01.778Z,1.37
2019-05-16T12:39:29.162Z,1.80
2019-05-16T12:41:59.254Z,1.70
2019-05-16T12:44:26.915Z,2.10
2019-05-16T12:46:56.975Z,2.07
2019-05-16T12:49:23.968Z,2.27
2019-05-16T12:51:51.514Z,1.87
2019-05-16T12:54:18.916Z,1.97
2019-05-16T12:56:48.296Z,2.57
2019-05-16T12:59:20.511Z,2.43
2019-05-16T13:01:48.079Z,2.60
2019-05-16T13:04:18.549Z,2.90
2019-05-16T13:06:44.041Z,2.80
2019-05-16T13:09:11.478Z,3.50
2019-05-16T13:11:39.074Z,3.30
2019-05-16T13:14:10.752Z,4.10
2019-05-16T13:16:37.583Z,5.23
2019-05-16T13:19:06.973Z,7.20
2019-05-16T13:21:34.665Z,8.03
2019-05-16T13:24:02.059Z,6.43
2019-05-16T13:26:29.545Z,5.37
2019-05-16T13:28:57.805Z,5.10
2019-05-16T13:31:28.566Z,4.60
2019-05-16T13:33:56.850Z,4.70
2019-05-16T13:36:24.128Z,5.23
2019-05-16T13:38:52.888Z,4.83
2019-05-16T13:41:20.645Z,4.77
2019-05-16T13:43:48.093Z,5.07
2019-05-16T13:46:17.220Z,5.63
2019-05-16T13:48:44.858Z,5.60
2019-05-16T13:51:15.827Z,5.27
2019-05-16T13:53:41.616Z,6.10
2019-05-16T13:56:12.994Z,6.27
2019-05-16T13:58:38.355Z,7.00
2019-05-16T14:01:07.909Z,5.93
2019-05-16T14:03:37.366Z,8.73
2019-05-16T14:06:07.002Z,6.27
2019-05-16T14:08:34.079Z,6.30
2019-05-16T14:11:02.492Z,5.40
2019-05-16T14:13:30.165Z,5.10
2019-05-16T14:15:57.560Z,5.60
2019-05-16T14:18:27.249Z,5.37
2019-05-16T14:20:54.317Z,4.77
2019-05-16T14:23:21.951Z,4.43
2019-05-16T14:25:49.499Z,4.97
2019-05-16T14:28:17.537Z,5.23
2019-05-16T14:30:46.739Z,5.00
2019-05-16T14:33:16.950Z,5.03
2019-05-16T14:35:43.744Z,4.97
2019-05-16T14:38:11.122Z,5.20
2019-05-16T14:40:38.551Z,5.47
2019-05-16T14:43:08.323Z,5.23
2019-05-16T14:45:37.220Z,5.77
2019-05-16T14:48:07.493Z,5.43
2019-05-16T14:50:37.277Z,5.47
2019-05-16T14:53:04.063Z,6.90
2019-05-16T14:55:31.414Z,6.30
2019-05-16T14:57:58.860Z,6.00
2019-05-16T15:00:27.583Z,7.63
2019-05-16T15:02:56.627Z,7.00
2019-05-16T15:05:24.304Z,7.37
2019-05-16T15:07:51.747Z,6.30
2019-05-16T15:10:19.372Z,7.80
2019-05-16T15:12:47.066Z,7.30
2019-05-16T15:15:21.287Z,7.43
2019-05-16T15:17:47.655Z,8.17
2019-05-16T15:20:18.024Z,10.13
2019-05-16T15:22:47.091Z,10.43
2019-05-16T15:25:13.970Z,10.07
2019-05-16T15:27:41.547Z,10.17
2019-05-16T15:30:11.163Z,10.17
2019-05-16T15:32:38.875Z,10.67
2019-05-16T15:35:07.805Z,10.90
2019-05-16T15:37:37.271Z,10.60
2019-05-16T15:40:07.227Z,12.23
2019-05-16T15:42:37.333Z,11.70
2019-05-16T15:45:06.976Z,10.83
2019-05-16T15:47:37.379Z,16.47
2019-05-16T15:50:07.997Z,9.53
2019-05-16T15:52:38.211Z,10.23
2019-05-16T15:55:10.020Z,10.73
2019-05-16T15:57:37.744Z,13.53
2019-05-16T16:00:09.890Z,10.87
2019-05-16T16:02:36.761Z,7.97
2019-05-16T16:05:07.159Z,7.67
2019-05-16T16:07:34.736Z,12.27
2019-05-16T16:10:02.378Z,8.53
2019-05-16T16:12:29.847Z,9.73
2019-05-16T16:14:57.603Z,8.60
2019-05-16T16:17:29.142Z,8.80
2019-05-16T16:19:54.505Z,8.90
2019-05-16T16:22:21.939Z,8.17
2019-05-16T16:24:49.388Z,6.50
2019-05-16T16:27:17.045Z,4.73
2019-05-16T16:29:44.443Z,5.70
2019-05-16T16:32:11.907Z,5.80
2019-05-16T16:34:39.343Z,6.13
2019-05-16T16:37:07.557Z,6.77
2019-05-16T16:39:37.542Z,6.50
2019-05-16T16:42:07.410Z,5.77
2019-05-16T16:44:33.832Z,5.37
2019-05-16T16:47:01.288Z,4.83
2019-05-16T16:49:29.247Z,5.73
2019-05-16T16:51:57.259Z,5.63
2019-05-16T16:54:24.797Z,5.90
2019-05-16T16:56:52.255Z,6.93
2019-05-16T16:59:19.665Z,7.10
2019-05-16T17:01:47.114Z,7.03
2019-05-16T17:04:17.270Z,6.47
2019-05-16T17:06:46.849Z,7.37
2019-05-16T17:09:13.970Z,6.20
2019-05-16T17:11:41.332Z,6.47
2019-05-16T17:14:08.816Z,6.27
2019-05-16T17:16:37.822Z,6.30
2019-05-16T17:19:07.670Z,7.23
2019-05-16T17:21:36.824Z,6.10
2019-05-16T17:24:06.284Z,5.77
2019-05-16T17:26:33.621Z,6.00
2019-05-16T17:29:01.035Z,5.93
2019-05-16T17:31:28.506Z,6.07
2019-05-16T17:33:57.719Z,5.93
2019-05-16T17:36:26.596Z,6.43
2019-05-16T17:38:54.154Z,5.07
2019-05-16T17:41:21.586Z,5.50
2019-05-16T17:43:49.032Z,5.67
2019-05-16T17:46:16.477Z,5.83
2019-05-16T17:48:46.626Z,4.73
2019-05-16T17:51:13.351Z,5.67
2019-05-16T17:53:40.935Z,5.37
2019-05-16T17:56:08.350Z,5.13
2019-05-16T17:58:35.861Z,5.50
2019-05-16T18:01:06.731Z,7.23
2019-05-16T18:03:33.721Z,6.03
2019-05-16T18:06:01.154Z,7.37
2019-05-16T18:08:28.645Z,6.93
2019-05-16T18:10:56.638Z,7.33
2019-05-16T18:13:24.337Z,8.37
2019-05-16T18:15:51.773Z,5.53
2019-05-16T18:18:19.232Z,5.80
2019-05-16T18:20:55.936Z,9.23
2019-05-16T18:23:16.447Z,9.67
2019-05-16T18:25:44.319Z,6.27
2019-05-16T18:28:11.741Z,5.60
2019-05-16T18:30:39.230Z,5.60
2019-05-16T18:33:07.511Z,5.37
2019-05-16T18:35:37.055Z,5.97
2019-05-16T18:38:07.196Z,6.93
2019-05-16T18:40:36.756Z,5.83
2019-05-16T18:43:03.977Z,26.83
2019-05-16T18:45:31.583Z,10.63
2019-05-16T18:47:59.028Z,9.00
2019-05-16T18:50:26.602Z,8.73
2019-05-16T18:52:54.259Z,7.40
2019-05-16T18:55:21.728Z,7.83
2019-05-16T18:57:49.171Z,8.23
2019-05-16T19:00:17.823Z,6.23
2019-05-16T19:02:47.680Z,6.80
2019-05-16T19:05:17.227Z,6.80
2019-05-16T19:07:44.493Z,6.53
2019-05-16T19:10:12.274Z,8.10
2019-05-16T19:12:39.701Z,6.57
2019-05-16T19:15:07.963Z,7.17
2019-05-16T19:17:35.412Z,6.53
2019-05-16T19:20:03.537Z,7.47
2019-05-16T19:22:30.906Z,7.87
2019-05-16T19:24:58.380Z,7.90
2019-05-16T19:27:26.197Z,7.73
2019-05-16T19:29:53.741Z,7.03
2019-05-16T19:32:21.223Z,7.50
2019-05-16T19:34:49.261Z,6.70
2019-05-16T19:37:16.827Z,6.50
2019-05-16T19:39:46.275Z,7.03
2019-05-16T19:42:13.869Z,6.50
2019-05-16T19:44:41.288Z,6.33
2019-05-16T19:47:08.696Z,6.10
2019-05-16T19:49:37.010Z,8.07
2019-05-16T19:52:07.054Z,7.37
2019-05-16T19:54:36.339Z,6.43
2019-05-16T19:57:03.544Z,7.43
2019-05-16T19:59:31.071Z,6.57
2019-05-16T20:01:58.561Z,6.63
2019-05-16T20:04:27.330Z,6.93
2019-05-16T20:06:56.659Z,7.20
2019-05-16T20:09:26.720Z,6.33
2019-05-16T20:11:53.662Z,6.40
2019-05-16T20:14:21.365Z,7.30
2019-05-16T20:16:57.831Z,6.33
2019-05-16T20:19:26.800Z,6.83
2019-05-16T20:21:54.357Z,6.73
2019-05-16T20:24:21.823Z,7.27
2019-05-16T20:26:49.295Z,7.03
2019-05-16T20:29:17.155Z,7.03
2019-05-16T20:31:47.510Z,6.70
2019-05-16T20:34:17.353Z,6.70
2019-05-16T20:36:46.495Z,5.60
2019-05-16T20:39:13.834Z,7.03
2019-05-16T20:41:41.261Z,6.67
2019-05-16T20:44:08.679Z,6.93
2019-05-16T20:46:36.144Z,6.43
2019-05-16T20:49:03.728Z,6.63
2019-05-16T20:51:31.177Z,5.97
2019-05-16T20:53:58.638Z,6.77
2019-05-16T20:56:26.531Z,6.87
2019-05-16T20:58:54.079Z,6.23
2019-05-16T21:01:21.568Z,6.87
2019-05-16T21:03:49.012Z,16.70
2019-05-16T21:06:17.121Z,17.87
2019-05-16T21:08:46.229Z,10.20
2019-05-16T21:11:14.125Z,8.60
2019-05-16T21:13:42.136Z,7.90
2019-05-16T21:16:09.579Z,8.43
2019-05-16T21:18:37.873Z,9.00
2019-05-16T21:21:07.592Z,7.67
2019-05-16T21:23:36.551Z,7.67
2019-05-16T21:26:04.090Z,7.07
2019-05-16T21:28:31.488Z,8.00
2019-05-16T21:30:58.955Z,6.80
2019-05-16T21:33:27.222Z,7.47
2019-05-16T21:35:56.518Z,7.97
2019-05-16T21:38:24.223Z,7.27
2019-05-16T21:40:51.671Z,7.77
2019-05-16T21:43:19.169Z,8.73
2019-05-16T21:45:47.392Z,8.03
2019-05-16T21:48:16.322Z,8.13
2019-05-16T21:50:46.261Z,7.93
2019-05-16T21:53:14.893Z,8.30
2019-05-16T21:55:42.358Z,7.80
2019-05-16T21:58:09.781Z,8.20
2019-05-16T22:00:43.051Z,7.30
2019-05-16T22:03:10.785Z,8.83
2019-05-16T22:05:38.333Z,8.13
2019-05-16T22:08:07.478Z,8.27
2019-05-16T22:10:37.286Z,8.23
2019-05-16T22:13:04.828Z,8.20
2019-05-16T22:15:32.452Z,8.17
2019-05-16T22:18:00.134Z,8.33
2019-05-16T22:20:27.816Z,8.07
2019-05-16T22:22:57.393Z,7.50
2019-05-16T22:25:27.120Z,8.03
2019-05-16T22:27:54.185Z,8.27
2019-05-16T22:30:21.780Z,7.67
2019-05-16T22:32:49.498Z,7.63
2019-05-16T22:35:17.770Z,8.20
2019-05-16T22:37:54.875Z,7.03
2019-05-16T22:40:17.179Z,8.57
2019-05-16T22:42:46.776Z,7.83
2019-05-16T22:45:18.339Z,8.17
2019-05-16T22:47:46.679Z,8.43
2019-05-16T22:50:17.602Z,9.07
2019-05-16T22:52:45.253Z,7.97
2019-05-16T22:55:13.339Z,8.80
2019-05-16T22:57:40.786Z,8.77
2019-05-16T23:00:10.624Z,8.83
2019-05-16T23:02:38.173Z,8.37
2019-05-16T23:05:07.359Z,8.70
2019-05-16T23:07:36.784Z,8.30
2019-05-16T23:10:07.279Z,9.10
2019-05-16T23:12:36.936Z,8.47
2019-05-16T23:15:06.439Z,8.87
2019-05-16T23:17:34.562Z,9.50
2019-05-16T23:20:02.149Z,8.57
2019-05-16T23:22:29.654Z,8.57
2019-05-16T23:24:57.167Z,9.57
2019-05-16T23:27:24.620Z,9.17
2019-05-16T23:29:52.195Z,8.73
2019-05-16T23:32:19.614Z,10.07
2019-05-16T23:34:47.087Z,9.63
2019-05-16T23:37:14.550Z,9.93
2019-05-16T23:39:41.948Z,8.63
2019-05-16T23:42:09.466Z,9.40
2019-05-16T23:44:36.939Z,9.50
2019-05-16T23:47:04.365Z,8.73
2019-05-16T23:49:31.996Z,9.03
2019-05-16T23:51:59.483Z,9.10
2019-05-16T23:54:27.810Z,10.73
2019-05-16T23:56:57.306Z,11.00
2019-05-16T23:59:24.875Z,9.20
